Time;durP1;ratioP1;P1;durP2;ratioP2;P2;SDS_P1;SDS_P2;PMS_P1;PMS_P2;Temp;Humidity;BMP_temperature;BMP_pressure;BME280_temperature;BME280_humidity;BME280_pressure;Samples;Min_cycle;Max_cycle;Signal;HPM_P1;HPM_P2
2024/02/17 00:02:14;;;;;;;9.00;8.07;;;;;;;;;;4967130;28;20079;-76
2024/02/17 00:04:40;;;;;;;13.52;8.98;;;;;;;;;;4967599;28;20070;-75
2024/02/17 00:07:06;;;;;;;7.75;5.75;;;;;;;;;;4967755;28;20145;-75
2024/02/17 00:09:34;;;;;;;14.40;10.65;;;;;;;;;;4965221;28;20059;-75
2024/02/17 00:12:00;;;;;;;9.07;7.75;;;;;;;;;;4966954;28;20046;-75
2024/02/17 00:14:26;;;;;;;6.60;5.57;;;;;;;;;;4966141;28;20037;-74
2024/02/17 00:16:52;;;;;;;6.05;5.53;;;;;;;;;;4967793;28;20405;-74
2024/02/17 00:19:18;;;;;;;9.90;7.15;;;;;;;;;;4968603;28;20035;-74
2024/02/17 00:21:45;;;;;;;7.85;7.03;;;;;;;;;;4966736;28;20088;-74
2024/02/17 00:24:12;;;;;;;6.38;4.70;;;;;;;;;;4967647;28;20038;-74
2024/02/17 00:26:38;;;;;;;11.35;7.53;;;;;;;;;;4967477;28;20065;-74
2024/02/17 00:29:04;;;;;;;9.45;7.00;;;;;;;;;;4967840;28;20069;-74
2024/02/17 00:31:30;;;;;;;8.20;7.03;;;;;;;;;;4964367;28;20467;-74
2024/02/17 00:33:56;;;;;;;13.60;9.23;;;;;;;;;;4968717;28;20547;-74
2024/02/17 00:36:22;;;;;;;8.93;6.63;;;;;;;;;;4967275;28;20528;-74
2024/02/17 00:38:48;;;;;;;8.75;7.82;;;;;;;;;;4967475;28;20053;-74
2024/02/17 00:41:16;;;;;;;12.75;9.57;;;;;;;;;;4966167;28;20126;-74
2024/02/17 00:43:42;;;;;;;6.95;6.30;;;;;;;;;;4967503;28;20857;-73
2024/02/17 00:46:07;;;;;;;12.30;7.93;;;;;;;;;;4967491;28;20034;-74
2024/02/17 00:48:33;;;;;;;14.77;9.48;;;;;;;;;;4967015;28;20053;-74
2024/02/17 00:50:59;;;;;;;16.63;9.55;;;;;;;;;;4967534;28;20169;-74
2024/02/17 00:53:25;;;;;;;9.93;6.80;;;;;;;;;;4966190;28;20062;-74
2024/02/17 00:55:51;;;;;;;15.55;10.80;;;;;;;;;;4967315;28;20513;-74
2024/02/17 00:58:17;;;;;;;10.25;8.45;;;;;;;;;;4967969;28;20453;-75
2024/02/17 01:00:43;;;;;;;13.05;6.30;;;;;;;;;;4966872;28;20122;-75
2024/02/17 01:03:10;;;;;;;14.30;8.95;;;;;;;;;;4957938;28;20051;-74
2024/02/17 01:05:38;;;;;;;9.13;6.65;;;;;;;;;;5045215;28;20026;-74
2024/02/17 01:08:08;;;;;;;13.85;11.05;;;;;;;;;;4965206;28;20411;-74
2024/02/17 01:10:34;;;;;;;5.95;5.43;;;;;;;;;;4966932;28;20031;-74
2024/02/17 01:12:59;;;;;;;11.38;7.85;;;;;;;;;;4967036;28;20057;-74
2024/02/17 01:15:25;;;;;;;10.43;7.00;;;;;;;;;;4965382;28;20411;-74
2024/02/17 01:17:51;;;;;;;9.43;6.25;;;;;;;;;;4965724;28;20092;-74
2024/02/17 01:20:17;;;;;;;11.80;8.90;;;;;;;;;;4966177;28;20031;-77
2024/02/17 01:22:43;;;;;;;9.18;8.27;;;;;;;;;;4934951;28;20039;-78
2024/02/17 01:25:10;;;;;;;7.05;4.97;;;;;;;;;;4929903;29;20058;-77
2024/02/17 01:27:35;;;;;;;6.35;5.75;;;;;;;;;;4947598;28;20084;-77
2024/02/17 01:30:01;;;;;;;11.15;8.57;;;;;;;;;;4949015;29;20043;-79
2024/02/17 01:32:27;;;;;;;5.53;5.05;;;;;;;;;;5006965;28;20048;-80
2024/02/17 01:34:53;;;;;;;6.07;5.47;;;;;;;;;;5050119;28;20056;-80
2024/02/17 01:37:19;;;;;;;11.65;7.22;;;;;;;;;;5048733;28;20067;-79
2024/02/17 01:39:45;;;;;;;10.77;7.30;;;;;;;;;;5049929;28;20038;-79
2024/02/17 01:42:11;;;;;;;7.50;6.63;;;;;;;;;;4999323;28;20046;-79
2024/02/17 01:44:37;;;;;;;16.35;5.60;;;;;;;;;;4950988;29;20063;-80
2024/02/17 01:47:03;;;;;;;8.95;7.60;;;;;;;;;;4953528;28;20059;-80
2024/02/17 01:49:29;;;;;;;6.80;3.38;;;;;;;;;;4948006;29;20486;-78
2024/02/17 01:51:55;;;;;;;7.25;6.60;;;;;;;;;;4931386;29;20101;-78
2024/02/17 01:54:21;;;;;;;9.60;8.57;;;;;;;;;;4947059;29;20124;-78
2024/02/17 01:56:47;;;;;;;9.60;8.60;;;;;;;;;;5010607;28;20032;-78
2024/02/17 01:59:13;;;;;;;7.05;6.35;;;;;;;;;;4947819;28;20036;-80
2024/02/17 02:01:41;;;;;;;5.22;4.82;;;;;;;;;;4954868;28;20043;-80
2024/02/17 02:04:06;;;;;;;7.63;6.53;;;;;;;;;;4969528;28;20070;-80
2024/02/17 02:06:32;;;;;;;6.65;5.97;;;;;;;;;;4968342;28;20108;-79
2024/02/17 02:08:58;;;;;;;6.28;5.60;;;;;;;;;;4971098;28;20145;-78
2024/02/17 02:11:24;;;;;;;7.07;6.43;;;;;;;;;;4967926;28;20465;-80
2024/02/17 02:13:50;;;;;;;9.60;8.40;;;;;;;;;;4966538;28;20030;-78
2024/02/17 02:16:17;;;;;;;8.35;7.40;;;;;;;;;;4966775;28;20031;-78
2024/02/17 02:18:42;;;;;;;10.70;8.18;;;;;;;;;;4966143;28;20813;-78
2024/02/17 02:21:08;;;;;;;10.13;6.28;;;;;;;;;;4966414;28;20046;-77
2024/02/17 02:23:35;;;;;;;11.98;8.10;;;;;;;;;;4964352;28;20155;-76
2024/02/17 02:26:01;;;;;;;9.13;5.60;;;;;;;;;;4963796;28;20042;-76
2024/02/17 02:28:27;;;;;;;10.13;9.05;;;;;;;;;;4964221;28;20061;-77
2024/02/17 02:30:55;;;;;;;7.78;6.90;;;;;;;;;;4941770;29;20053;-79
2024/02/17 02:33:20;;;;;;;9.93;8.93;;;;;;;;;;4961474;28;20046;-78
2024/02/17 02:35:46;;;;;;;6.65;6.07;;;;;;;;;;4965703;28;20422;-78
2024/02/17 02:38:12;;;;;;;11.27;8.05;;;;;;;;;;4965849;28;20125;-78
2024/02/17 02:40:38;;;;;;;9.82;7.68;;;;;;;;;;4965365;28;20094;-76
2024/02/17 02:43:04;;;;;;;8.68;7.47;;;;;;;;;;5015607;28;20667;-77
2024/02/17 02:45:31;;;;;;;8.80;7.40;;;;;;;;;;4961070;28;20109;-77
2024/02/17 02:47:57;;;;;;;14.50;8.00;;;;;;;;;;4944697;28;20039;-77
2024/02/17 02:50:23;;;;;;;7.13;5.70;;;;;;;;;;4945810;28;20038;-77
2024/02/17 02:52:48;;;;;;;9.20;6.72;;;;;;;;;;5034106;28;20052;-77
2024/02/17 02:55:14;;;;;;;9.18;6.50;;;;;;;;;;5048148;28;20033;-77
2024/02/17 02:57:40;;;;;;;10.63;7.30;;;;;;;;;;5043841;28;20114;-77
2024/02/17 03:00:06;;;;;;;11.40;8.68;;;;;;;;;;5046666;28;20504;-77
2024/02/17 03:02:32;;;;;;;12.98;8.73;;;;;;;;;;4983876;28;20079;-77
2024/02/17 03:04:58;;;;;;;10.65;8.85;;;;;;;;;;4946430;29;20034;-76
2024/02/17 03:07:25;;;;;;;10.93;8.55;;;;;;;;;;4945568;28;20538;-76
2024/02/17 03:09:51;;;;;;;12.77;8.00;;;;;;;;;;4945977;29;20478;-77
2024/02/17 03:12:16;;;;;;;8.15;7.32;;;;;;;;;;4993205;28;20045;-77
2024/02/17 03:14:42;;;;;;;15.60;11.50;;;;;;;;;;5045517;28;20065;-77
2024/02/17 03:17:08;;;;;;;15.77;10.85;;;;;;;;;;5046559;28;20037;-77
2024/02/17 03:19:34;;;;;;;10.85;8.30;;;;;;;;;;5027334;28;20022;-78
2024/02/17 03:22:00;;;;;;;7.38;6.15;;;;;;;;;;5013740;28;20131;-78
2024/02/17 03:24:26;;;;;;;13.40;8.20;;;;;;;;;;4965251;28;20046;-78
2024/02/17 03:26:52;;;;;;;8.00;7.20;;;;;;;;;;4964976;28;20031;-78
2024/02/17 03:29:18;;;;;;;11.18;7.60;;;;;;;;;;4949793;28;20426;-77
2024/02/17 03:31:45;;;;;;;11.20;5.60;;;;;;;;;;4967273;28;20172;-77
2024/02/17 03:34:11;;;;;;;11.07;8.75;;;;;;;;;;4964263;28;20764;-78
2024/02/17 03:36:37;;;;;;;12.32;8.73;;;;;;;;;;4964009;28;20049;-78
2024/02/17 03:39:06;;;;;;;11.60;8.13;;;;;;;;;;4965564;28;20034;-79
2024/02/17 03:41:32;;;;;;;11.27;10.10;;;;;;;;;;4941745;28;20042;-78
2024/02/17 03:43:57;;;;;;;10.15;8.07;;;;;;;;;;4946387;28;20031;-78
2024/02/17 03:46:23;;;;;;;9.77;7.60;;;;;;;;;;4961201;28;20032;-77
2024/02/17 03:48:49;;;;;;;7.38;6.55;;;;;;;;;;5018925;28;20050;-78
2024/02/17 03:51:16;;;;;;;11.07;9.88;;;;;;;;;;4962448;28;20031;-76
2024/02/17 03:53:41;;;;;;;13.88;8.95;;;;;;;;;;4964495;28;20042;-77
2024/02/17 03:56:07;;;;;;;11.32;8.35;;;;;;;;;;4979687;28;20030;-77
2024/02/17 03:58:33;;;;;;;9.95;8.18;;;;;;;;;;4963263;28;20047;-77
2024/02/17 04:00:59;;;;;;;7.72;6.97;;;;;;;;;;4962232;28;20391;-78
2024/02/17 04:03:27;;;;;;;29.58;17.48;;;;;;;;;;4963378;28;20053;-77
2024/02/17 04:05:53;;;;;;;8.60;7.78;;;;;;;;;;4957928;28;20023;-78
2024/02/17 04:08:19;;;;;;;19.50;8.80;;;;;;;;;;4951459;28;20063;-78
2024/02/17 04:10:45;;;;;;;11.60;9.50;;;;;;;;;;4969219;28;20561;-78
2024/02/17 04:13:11;;;;;;;9.75;8.30;;;;;;;;;;4967471;28;20046;-80
2024/02/17 04:15:38;;;;;;;11.18;7.25;;;;;;;;;;4968355;28;20091;-78
2024/02/17 04:18:08;;;;;;;9.32;8.13;;;;;;;;;;4969365;28;20034;-77
2024/02/17 04:20:37;;;;;;;14.13;8.55;;;;;;;;;;4966508;28;20070;-77
2024/02/17 04:23:04;;;;;;;10.23;8.63;;;;;;;;;;4967365;28;20097;-78
2024/02/17 04:25:30;;;;;;;13.45;10.07;;;;;;;;;;4967610;28;20126;-78
2024/02/17 04:27:56;;;;;;;22.67;12.32;;;;;;;;;;4972507;28;20126;-77
2024/02/17 04:30:21;;;;;;;8.20;7.18;;;;;;;;;;4986533;28;20031;-78
2024/02/17 04:32:47;;;;;;;12.30;9.60;;;;;;;;;;4968541;28;20820;-78
2024/02/17 04:35:16;;;;;;;8.25;7.43;;;;;;;;;;4972768;28;20469;-78
2024/02/17 04:37:42;;;;;;;10.40;8.48;;;;;;;;;;4968003;28;20024;-78
2024/02/17 04:40:09;;;;;;;9.45;7.30;;;;;;;;;;4973637;28;20046;-77
2024/02/17 04:42:35;;;;;;;14.32;9.82;;;;;;;;;;4971374;28;20522;-78
2024/02/17 04:45:01;;;;;;;13.10;8.65;;;;;;;;;;4941263;28;20038;-79
2024/02/17 04:47:27;;;;;;;10.60;9.40;;;;;;;;;;4974395;28;20594;-77
2024/02/17 04:49:53;;;;;;;15.80;10.65;;;;;;;;;;4989880;28;20035;-78
2024/02/17 04:52:19;;;;;;;9.38;7.50;;;;;;;;;;4992566;28;20623;-76
2024/02/17 04:54:45;;;;;;;11.02;8.90;;;;;;;;;;4976037;28;20043;-75
2024/02/17 04:57:10;;;;;;;6.75;6.10;;;;;;;;;;4978307;28;20225;-77
2024/02/17 04:59:36;;;;;;;11.15;9.77;;;;;;;;;;4971574;28;20035;-77
2024/02/17 05:02:02;;;;;;;7.82;7.13;;;;;;;;;;4968424;28;20050;-76
2024/02/17 05:04:28;;;;;;;10.88;9.02;;;;;;;;;;4966614;28;20031;-73
2024/02/17 05:06:54;;;;;;;14.63;10.80;;;;;;;;;;4967377;28;20030;-73
2024/02/17 05:09:20;;;;;;;8.93;7.97;;;;;;;;;;4961353;28;20062;-72
2024/02/17 05:11:46;;;;;;;6.07;5.50;;;;;;;;;;4954794;28;20807;-72
2024/02/17 05:14:15;;;;;;;7.03;6.35;;;;;;;;;;4946108;29;20035;-73
2024/02/17 05:16:45;;;;;;;9.88;8.75;;;;;;;;;;4945183;28;20136;-73
2024/02/17 05:19:12;;;;;;;13.80;9.45;;;;;;;;;;4946363;28;20059;-73
2024/02/17 05:21:38;;;;;;;8.88;8.02;;;;;;;;;;4967577;28;20538;-73
2024/02/17 05:24:04;;;;;;;10.70;9.40;;;;;;;;;;5047618;28;20037;-73
2024/02/17 05:26:33;;;;;;;8.77;7.63;;;;;;;;;;5039404;28;20093;-73
2024/02/17 05:28:59;;;;;;;11.25;7.45;;;;;;;;;;5048050;28;20045;-73
2024/02/17 05:31:26;;;;;;;8.07;7.05;;;;;;;;;;5028910;28;20053;-72
2024/02/17 05:33:52;;;;;;;10.57;9.50;;;;;;;;;;4962579;28;20035;-72
2024/02/17 05:36:18;;;;;;;9.27;7.13;;;;;;;;;;4961381;28;20041;-73
2024/02/17 05:38:44;;;;;;;13.73;9.82;;;;;;;;;;4977251;28;20250;-74
2024/02/17 05:41:10;;;;;;;10.27;6.85;;;;;;;;;;4966021;28;20045;-73
2024/02/17 05:43:36;;;;;;;13.43;8.90;;;;;;;;;;4965198;28;20487;-73
2024/02/17 05:46:02;;;;;;;16.20;12.30;;;;;;;;;;4965164;28;20042;-73
2024/02/17 05:48:28;;;;;;;16.42;11.88;;;;;;;;;;4965031;28;20051;-73
2024/02/17 05:50:54;;;;;;;10.82;8.10;;;;;;;;;;4963757;28;20511;-73
2024/02/17 05:53:20;;;;;;;13.43;9.85;;;;;;;;;;4957382;28;20109;-72
2024/02/17 05:55:46;;;;;;;14.68;10.63;;;;;;;;;;4965786;28;20072;-73
2024/02/17 05:58:12;;;;;;;9.48;6.65;;;;;;;;;;4960901;28;20043;-74
2024/02/17 06:00:39;;;;;;;12.70;10.00;;;;;;;;;;4962262;28;20034;-74
2024/02/17 06:03:04;;;;;;;13.52;9.52;;;;;;;;;;4960798;28;20043;-74
2024/02/17 06:05:32;;;;;;;21.02;9.27;;;;;;;;;;4944481;28;20685;-73
2024/02/17 06:07:58;;;;;;;14.38;11.32;;;;;;;;;;4964578;28;20078;-74
2024/02/17 06:10:24;;;;;;;14.48;9.30;;;;;;;;;;4964849;28;20031;-73
2024/02/17 06:12:50;;;;;;;9.73;8.50;;;;;;;;;;5025519;28;20069;-73
2024/02/17 06:15:16;;;;;;;22.60;13.00;;;;;;;;;;5061322;28;20416;-73
2024/02/17 06:17:43;;;;;;;17.83;12.48;;;;;;;;;;5043771;28;20095;-72
2024/02/17 06:22:55;;;;;;;15.68;10.43;;;;;;;;;;4983901;28;20030;-72
2024/02/17 06:25:22;;;;;;;26.50;13.82;;;;;;;;;;4961685;28;20047;-72
2024/02/17 06:27:48;;;;;;;20.00;13.40;;;;;;;;;;4948689;28;20050;-71
2024/02/17 06:30:14;;;;;;;12.48;10.13;;;;;;;;;;4958744;28;20030;-71
2024/02/17 06:32:41;;;;;;;15.27;11.40;;;;;;;;;;4963226;28;20042;-71
2024/02/17 06:35:06;;;;;;;20.67;15.05;;;;;;;;;;4966455;28;20046;-72
2024/02/17 06:37:34;;;;;;;12.38;10.30;;;;;;;;;;4963246;28;20048;-73
2024/02/17 06:40:00;;;;;;;15.77;12.27;;;;;;;;;;4951920;28;20512;-73
2024/02/17 06:42:26;;;;;;;14.00;10.77;;;;;;;;;;4958460;28;20043;-73
2024/02/17 06:44:52;;;;;;;17.48;12.07;;;;;;;;;;4964488;28;20034;-71
2024/02/17 06:47:19;;;;;;;8.90;6.47;;;;;;;;;;4948300;28;20033;-73
2024/02/17 06:49:45;;;;;;;15.55;11.57;;;;;;;;;;4963694;28;20046;-75
2024/02/17 06:52:11;;;;;;;18.05;13.82;;;;;;;;;;4963555;28;20047;-73
2024/02/17 06:54:37;;;;;;;13.82;10.80;;;;;;;;;;4961450;28;20049;-73
2024/02/17 06:57:03;;;;;;;11.82;9.63;;;;;;;;;;4962519;28;20481;-73
2024/02/17 06:59:29;;;;;;;15.55;11.35;;;;;;;;;;4992073;28;20092;-73
2024/02/17 07:01:56;;;;;;;14.77;9.65;;;;;;;;;;4994507;28;20076;-73
2024/02/17 07:04:21;;;;;;;21.30;14.20;;;;;;;;;;5041847;28;20049;-73
2024/02/17 07:06:47;;;;;;;25.17;16.73;;;;;;;;;;5046494;28;20517;-72
2024/02/17 07:09:18;;;;;;;23.42;15.73;;;;;;;;;;5042917;28;20064;-74
2024/02/17 07:11:44;;;;;;;16.30;12.15;;;;;;;;;;5016006;28;20073;-73
2024/02/17 07:14:12;;;;;;;17.52;11.20;;;;;;;;;;4945989;29;20039;-73
2024/02/17 07:16:38;;;;;;;15.13;12.77;;;;;;;;;;4945488;29;20130;-73
2024/02/17 07:19:04;;;;;;;19.23;13.00;;;;;;;;;;4947209;28;20128;-74
2024/02/17 07:21:30;;;;;;;18.10;11.85;;;;;;;;;;4946721;28;20039;-73
2024/02/17 07:23:56;;;;;;;15.95;12.07;;;;;;;;;;4946024;29;20043;-73
2024/02/17 07:26:22;;;;;;;9.90;8.90;;;;;;;;;;4946165;29;20564;-73
2024/02/17 07:28:48;;;;;;;18.52;12.25;;;;;;;;;;4946776;29;20055;-73
2024/02/17 07:31:16;;;;;;;14.50;11.10;;;;;;;;;;4946629;28;20043;-73
2024/02/17 07:33:49;;;;;;;11.70;9.50;;;;;;;;;;4946956;29;20062;-72
2024/02/17 07:36:15;;;;;;;18.00;12.38;;;;;;;;;;4946600;28;20071;-77
2024/02/17 07:38:41;;;;;;;12.50;10.30;;;;;;;;;;4937162;28;20070;-73
2024/02/17 07:41:06;;;;;;;14.10;9.30;;;;;;;;;;4946948;28;20495;-74
2024/02/17 07:43:33;;;;;;;9.65;8.73;;;;;;;;;;5041451;28;20059;-73
2024/02/17 07:45:59;;;;;;;11.10;9.35;;;;;;;;;;5043713;28;20487;-73
2024/02/17 07:48:25;;;;;;;12.45;9.85;;;;;;;;;;5047134;28;20044;-74
2024/02/17 07:50:51;;;;;;;13.70;11.02;;;;;;;;;;5031616;28;20021;-73
2024/02/17 07:53:17;;;;;;;11.48;10.15;;;;;;;;;;4970242;28;20061;-75
2024/02/17 07:55:43;;;;;;;12.48;8.45;;;;;;;;;;4966847;28;20030;-74
2024/02/17 07:58:09;;;;;;;12.70;8.82;;;;;;;;;;4967126;28;20129;-73
2024/02/17 08:00:35;;;;;;;20.65;15.05;;;;;;;;;;4968622;28;20038;-74
2024/02/17 08:03:01;;;;;;;15.00;9.48;;;;;;;;;;4966468;28;20073;-73
2024/02/17 08:05:27;;;;;;;15.07;11.45;;;;;;;;;;4959798;28;20031;-72
2024/02/17 08:07:55;;;;;;;8.82;7.97;;;;;;;;;;4959517;28;20062;-73
2024/02/17 08:10:21;;;;;;;13.93;11.05;;;;;;;;;;4967070;28;20084;-73
2024/02/17 08:12:46;;;;;;;11.40;9.15;;;;;;;;;;4965744;28;20055;-71
2024/02/17 08:15:12;;;;;;;11.30;9.40;;;;;;;;;;4962624;28;20030;-72
2024/02/17 08:17:38;;;;;;;13.18;10.15;;;;;;;;;;4966449;28;20753;-71
2024/02/17 08:20:05;;;;;;;13.85;10.02;;;;;;;;;;4967963;28;20076;-72
2024/02/17 08:22:31;;;;;;;16.35;10.73;;;;;;;;;;5015475;28;20479;-74
2024/02/17 08:24:56;;;;;;;10.15;8.45;;;;;;;;;;5062036;28;20036;-72
2024/02/17 08:27:22;;;;;;;13.25;10.23;;;;;;;;;;5046340;28;20040;-73
2024/02/17 08:29:49;;;;;;;13.65;9.73;;;;;;;;;;5043094;28;20049;-73
2024/02/17 08:32:15;;;;;;;15.00;10.77;;;;;;;;;;4997186;28;20039;-73
2024/02/17 08:34:41;;;;;;;14.00;9.27;;;;;;;;;;4943992;29;20043;-73
2024/02/17 08:37:07;;;;;;;9.10;7.97;;;;;;;;;;4948771;29;20039;-73
2024/02/17 08:39:33;;;;;;;13.65;9.63;;;;;;;;;;4947114;28;20032;-74
2024/02/17 08:41:59;;;;;;;16.30;11.07;;;;;;;;;;4945792;28;20039;-74
2024/02/17 08:44:25;;;;;;;11.07;9.88;;;;;;;;;;4963049;28;20031;-74
2024/02/17 08:46:51;;;;;;;10.05;8.55;;;;;;;;;;4949108;29;20039;-74
2024/02/17 08:49:17;;;;;;;10.52;9.38;;;;;;;;;;4949355;28;20081;-72
2024/02/17 08:51:42;;;;;;;9.23;8.32;;;;;;;;;;4954156;28;20560;-76
2024/02/17 08:54:09;;;;;;;13.07;11.50;;;;;;;;;;4977203;28;20031;-73
2024/02/17 08:56:35;;;;;;;10.40;8.95;;;;;;;;;;4978858;28;20535;-74
2024/02/17 08:59:01;;;;;;;9.27;8.43;;;;;;;;;;4971864;28;20026;-74
2024/02/17 09:01:27;;;;;;;9.25;8.18;;;;;;;;;;4974934;28;20126;-74
2024/02/17 09:03:53;;;;;;;9.93;8.63;;;;;;;;;;4975214;28;20070;-74
2024/02/17 09:06:20;;;;;;;11.70;8.93;;;;;;;;;;4965111;28;20498;-73
2024/02/17 09:08:45;;;;;;;9.40;8.48;;;;;;;;;;4951468;28;20058;-74
2024/02/17 09:11:11;;;;;;;12.27;10.25;;;;;;;;;;4947515;28;20039;-74
2024/02/17 09:13:37;;;;;;;7.60;6.82;;;;;;;;;;4967268;28;20039;-74
2024/02/17 09:16:03;;;;;;;7.20;6.60;;;;;;;;;;4965888;28;20050;-74
2024/02/17 09:18:29;;;;;;;8.30;7.47;;;;;;;;;;4960169;28;20026;-74
2024/02/17 09:20:56;;;;;;;9.73;8.52;;;;;;;;;;4958959;28;20054;-73
2024/02/17 09:23:22;;;;;;;13.32;10.15;;;;;;;;;;4964978;28;20082;-73
2024/02/17 09:25:48;;;;;;;11.82;9.43;;;;;;;;;;4949990;28;20071;-73
2024/02/17 09:28:14;;;;;;;9.80;8.57;;;;;;;;;;4949942;28;20129;-72
2024/02/17 09:30:40;;;;;;;9.43;8.35;;;;;;;;;;4947034;28;20030;-72
2024/02/17 09:33:05;;;;;;;13.43;11.80;;;;;;;;;;4961042;28;20070;-72
2024/02/17 09:35:31;;;;;;;12.63;8.93;;;;;;;;;;4966588;28;20039;-72
2024/02/17 09:37:57;;;;;;;14.23;7.20;;;;;;;;;;4966651;28;20118;-72
2024/02/17 09:40:23;;;;;;;7.70;6.15;;;;;;;;;;4964004;28;20037;-72
2024/02/17 09:42:50;;;;;;;10.82;7.28;;;;;;;;;;4965168;28;20039;-71
2024/02/17 09:45:16;;;;;;;14.15;10.63;;;;;;;;;;4948610;28;20062;-73
2024/02/17 09:47:43;;;;;;;12.27;10.30;;;;;;;;;;4962099;28;20078;-73
2024/02/17 09:50:10;;;;;;;9.60;8.60;;;;;;;;;;4950630;28;20046;-74
2024/02/17 09:52:36;;;;;;;12.98;9.55;;;;;;;;;;4926500;28;20058;-73
2024/02/17 09:55:01;;;;;;;8.50;7.75;;;;;;;;;;4941381;28;20125;-73
2024/02/17 09:57:29;;;;;;;15.63;7.68;;;;;;;;;;4966625;28;20039;-72
2024/02/17 09:59:55;;;;;;;10.25;7.47;;;;;;;;;;4987768;28;20097;-73
2024/02/17 10:02:21;;;;;;;10.13;8.05;;;;;;;;;;4965655;28;20031;-72
2024/02/17 10:04:56;;;;;;;9.63;8.68;;;;;;;;;;4975926;28;20043;-72
2024/02/17 10:07:22;;;;;;;12.02;10.00;;;;;;;;;;4958156;28;20629;-71
2024/02/17 10:09:48;;;;;;;13.27;9.18;;;;;;;;;;4945198;28;20533;-71
2024/02/17 10:12:14;;;;;;;13.55;10.18;;;;;;;;;;4946626;29;20043;-72
2024/02/17 10:14:40;;;;;;;19.45;10.95;;;;;;;;;;5028681;28;20047;-71
2024/02/17 10:17:08;;;;;;;10.25;7.70;;;;;;;;;;4945469;29;20126;-71
2024/02/17 10:19:34;;;;;;;9.60;7.65;;;;;;;;;;5010662;28;20418;-71
2024/02/17 10:22:00;;;;;;;14.68;9.45;;;;;;;;;;4946776;28;20039;-72
2024/02/17 10:24:25;;;;;;;14.25;9.18;;;;;;;;;;4946707;29;20392;-71
2024/02/17 10:26:54;;;;;;;11.55;9.60;;;;;;;;;;4946630;29;20096;-73
2024/02/17 10:29:20;;;;;;;11.30;9.60;;;;;;;;;;5029328;28;20059;-72
2024/02/17 10:31:47;;;;;;;12.30;10.07;;;;;;;;;;4946399;29;20042;-72
2024/02/17 10:34:13;;;;;;;12.48;8.80;;;;;;;;;;4947997;29;20097;-72
2024/02/17 10:36:39;;;;;;;9.45;8.10;;;;;;;;;;5013638;28;20027;-72
2024/02/17 10:39:06;;;;;;;13.55;11.35;;;;;;;;;;4946588;28;20039;-72
2024/02/17 10:41:34;;;;;;;16.75;10.82;;;;;;;;;;5030010;28;20027;-72
2024/02/17 10:44:00;;;;;;;12.68;10.00;;;;;;;;;;4995951;28;20310;-72
2024/02/17 10:46:27;;;;;;;10.63;9.40;;;;;;;;;;4947800;29;20063;-72
2024/02/17 10:49:11;;;;;;;9.63;7.85;;;;;;;;;;4946530;28;20062;-72
2024/02/17 10:51:40;;;;;;;14.85;10.02;;;;;;;;;;4946354;29;20051;-72
2024/02/17 10:54:06;;;;;;;11.02;9.10;;;;;;;;;;5013030;28;20108;-71
2024/02/17 10:56:32;;;;;;;8.05;7.35;;;;;;;;;;5029970;28;20558;-71
2024/02/17 10:58:59;;;;;;;8.25;7.30;;;;;;;;;;4946060;28;20039;-71
2024/02/17 11:01:29;;;;;;;9.60;8.50;;;;;;;;;;4947676;29;20119;-71
2024/02/17 11:03:55;;;;;;;13.67;11.63;;;;;;;;;;4964592;28;20043;-70
2024/02/17 11:06:21;;;;;;;9.50;8.00;;;;;;;;;;4965283;28;20760;-70
2024/02/17 11:08:47;;;;;;;10.38;9.30;;;;;;;;;;4948781;28;20086;-70
2024/02/17 11:11:26;;;;;;;13.43;11.57;;;;;;;;;;4948592;28;20051;-70
2024/02/17 11:13:53;;;;;;;11.57;9.23;;;;;;;;;;4965320;28;20420;-71
2024/02/17 11:16:21;;;;;;;9.57;8.57;;;;;;;;;;4970029;28;20035;-72
2024/02/17 11:18:53;;;;;;;11.10;9.60;;;;;;;;;;4952151;28;20048;-71
2024/02/17 11:21:24;;;;;;;10.68;9.40;;;;;;;;;;4964830;28;20069;-71
2024/02/17 11:23:50;;;;;;;11.52;10.13;;;;;;;;;;4950268;28;20043;-71
2024/02/17 11:26:17;;;;;;;14.23;10.98;;;;;;;;;;4949353;29;20411;-71
2024/02/17 11:28:43;;;;;;;10.63;9.20;;;;;;;;;;4933174;29;20047;-72
2024/02/17 11:31:09;;;;;;;14.10;9.60;;;;;;;;;;5046952;28;20040;-72
2024/02/17 11:33:35;;;;;;;9.05;8.13;;;;;;;;;;5017346;28;20087;-72
2024/02/17 11:36:01;;;;;;;8.93;7.80;;;;;;;;;;5051401;28;20065;-72
2024/02/17 11:38:28;;;;;;;11.85;9.95;;;;;;;;;;5051584;28;20041;-72
2024/02/17 11:41:03;;;;;;;8.95;7.03;;;;;;;;;;4962409;28;20585;-71
2024/02/17 11:43:29;;;;;;;10.23;8.52;;;;;;;;;;5033048;28;20070;-72
2024/02/17 11:45:55;;;;;;;7.97;7.18;;;;;;;;;;4948775;29;20038;-72
2024/02/17 11:48:21;;;;;;;18.10;10.15;;;;;;;;;;4950097;29;20492;-72
2024/02/17 11:50:47;;;;;;;12.63;8.77;;;;;;;;;;5029923;28;20125;-72
2024/02/17 11:53:13;;;;;;;7.65;6.15;;;;;;;;;;5033605;28;20054;-72
2024/02/17 11:55:39;;;;;;;10.48;9.48;;;;;;;;;;5049882;28;20086;-73
2024/02/17 11:58:09;;;;;;;9.75;8.27;;;;;;;;;;5049595;28;20025;-71
2024/02/17 12:00:38;;;;;;;11.57;9.25;;;;;;;;;;4990827;28;20050;-72
2024/02/17 12:03:05;;;;;;;11.80;9.80;;;;;;;;;;4969136;28;20066;-72
2024/02/17 12:05:31;;;;;;;12.70;9.15;;;;;;;;;;4957973;28;20030;-72
2024/02/17 12:07:57;;;;;;;13.77;10.23;;;;;;;;;;4971540;28;20057;-72
2024/02/17 12:10:23;;;;;;;10.48;9.15;;;;;;;;;;4952370;28;20050;-72
2024/02/17 12:12:50;;;;;;;9.57;8.57;;;;;;;;;;4995418;28;20206;-72
2024/02/17 12:15:16;;;;;;;10.93;9.85;;;;;;;;;;4951900;28;20050;-71
2024/02/17 12:17:44;;;;;;;10.27;9.05;;;;;;;;;;4948975;28;20039;-72
2024/02/17 12:20:11;;;;;;;7.70;6.50;;;;;;;;;;4974220;28;20816;-72
2024/02/17 12:22:38;;;;;;;10.27;7.18;;;;;;;;;;4964776;28;20031;-72
2024/02/17 12:25:04;;;;;;;8.98;7.63;;;;;;;;;;5009653;28;20119;-72
2024/02/17 12:27:30;;;;;;;12.70;9.52;;;;;;;;;;4965648;28;20035;-73
2024/02/17 12:29:56;;;;;;;11.05;9.73;;;;;;;;;;5002118;28;20509;-73
2024/02/17 12:32:22;;;;;;;10.45;8.85;;;;;;;;;;4997107;28;20136;-72
2024/02/17 12:34:48;;;;;;;13.13;10.20;;;;;;;;;;5028854;28;20274;-72
2024/02/17 12:37:16;;;;;;;9.93;8.95;;;;;;;;;;5048141;28;20040;-72
2024/02/17 12:39:43;;;;;;;10.93;8.63;;;;;;;;;;4978131;28;20133;-72
2024/02/17 12:42:09;;;;;;;10.15;7.63;;;;;;;;;;4977285;28;20116;-72
2024/02/17 12:44:35;;;;;;;12.48;10.25;;;;;;;;;;4957756;28;20140;-72
2024/02/17 12:47:11;;;;;;;12.18;9.05;;;;;;;;;;4946763;28;20462;-72
2024/02/17 12:49:37;;;;;;;10.63;8.23;;;;;;;;;;5010330;28;20055;-72
2024/02/17 12:52:03;;;;;;;12.57;9.50;;;;;;;;;;4985290;28;20038;-72
2024/02/17 12:54:30;;;;;;;8.82;7.95;;;;;;;;;;4970924;28;20042;-72
2024/02/17 12:56:56;;;;;;;9.95;8.93;;;;;;;;;;4965250;28;20042;-72
2024/02/17 12:59:21;;;;;;;9.20;6.85;;;;;;;;;;4960733;28;20051;-72
2024/02/17 13:01:47;;;;;;;13.73;9.38;;;;;;;;;;5012608;28;20914;-72
2024/02/17 13:04:13;;;;;;;12.23;8.35;;;;;;;;;;4945630;28;20423;-71
2024/02/17 13:06:39;;;;;;;7.68;5.75;;;;;;;;;;4946142;28;20118;-71
2024/02/17 13:09:06;;;;;;;8.85;8.02;;;;;;;;;;4959543;28;20196;-71
2024/02/17 13:11:32;;;;;;;9.15;7.03;;;;;;;;;;4965711;28;20031;-71
2024/02/17 13:13:58;;;;;;;11.30;9.23;;;;;;;;;;4964628;28;20043;-72
2024/02/17 13:16:42;;;;;;;12.48;7.22;;;;;;;;;;4932060;28;20030;-71
2024/02/17 13:19:08;;;;;;;12.18;10.40;;;;;;;;;;4947518;28;20046;-71
2024/02/17 13:21:34;;;;;;;8.70;7.25;;;;;;;;;;4971346;28;20091;-72
2024/02/17 13:24:02;;;;;;;11.18;7.80;;;;;;;;;;4938934;28;20504;-71
2024/02/17 13:26:28;;;;;;;13.57;8.43;;;;;;;;;;4957845;28;20045;-71
2024/02/17 13:28:57;;;;;;;10.10;8.98;;;;;;;;;;4962888;28;20050;-71
2024/02/17 13:31:22;;;;;;;10.55;8.95;;;;;;;;;;4965817;28;20042;-71
2024/02/17 13:33:48;;;;;;;11.13;9.35;;;;;;;;;;4964622;28;20054;-72
2024/02/17 13:36:14;;;;;;;9.85;8.85;;;;;;;;;;4965026;28;20039;-71
2024/02/17 13:38:40;;;;;;;9.50;7.38;;;;;;;;;;4944787;28;20030;-73
2024/02/17 13:41:24;;;;;;;13.40;10.48;;;;;;;;;;4960708;28;20049;-71
2024/02/17 13:43:50;;;;;;;8.88;5.95;;;;;;;;;;4964667;28;20058;-71
2024/02/17 13:46:18;;;;;;;12.50;11.13;;;;;;;;;;4955424;28;20039;-71
2024/02/17 13:48:44;;;;;;;7.45;6.75;;;;;;;;;;4942333;28;20158;-70
2024/02/17 13:51:10;;;;;;;14.38;8.95;;;;;;;;;;4942512;28;20602;-70
2024/02/17 13:53:36;;;;;;;13.40;10.00;;;;;;;;;;4946388;28;20127;-71
2024/02/17 16:10:16;;;;;;;9.85;7.80;;;;;;;;;;3066733;23;20531;-73
2024/02/17 16:12:57;;;;;;;14.75;10.35;;;;;;;;;;4949774;28;20100;-73
2024/02/17 16:18:38;;;;;;;11.80;9.45;;;;;;;;;;4917554;29;20046;-72
2024/02/17 16:21:04;;;;;;;15.68;10.77;;;;;;;;;;4949389;28;20149;-72
2024/02/17 16:23:31;;;;;;;10.48;8.93;;;;;;;;;;4950474;29;20061;-72
2024/02/17 16:25:57;;;;;;;12.32;8.40;;;;;;;;;;4949945;29;20039;-72
2024/02/17 16:28:25;;;;;;;10.13;7.35;;;;;;;;;;4950818;29;20047;-72
2024/02/17 16:30:51;;;;;;;9.90;8.13;;;;;;;;;;4934137;29;20152;-72
2024/02/17 16:33:17;;;;;;;11.63;8.60;;;;;;;;;;4949445;29;20872;-72
2024/02/17 16:35:46;;;;;;;14.38;10.55;;;;;;;;;;4903188;29;20035;-72
2024/02/17 16:38:15;;;;;;;21.42;9.07;;;;;;;;;;4949712;29;20464;-73
2024/02/17 16:40:41;;;;;;;14.98;9.00;;;;;;;;;;4931639;29;20043;-73
2024/02/17 16:43:07;;;;;;;16.45;11.20;;;;;;;;;;4932507;29;20053;-72
2024/02/17 16:45:52;;;;;;;15.43;10.95;;;;;;;;;;4934330;28;20069;-72
2024/02/17 16:48:18;;;;;;;14.40;10.40;;;;;;;;;;4947690;29;20659;-72